• Join FlightAware (Why Join?)
  • Login
  • US Flag 
04:05PM EDT


 

Airport Tracker/Info


-or-


 

Live Flight TrackerFlight Track Log ✈ AWE2690 ✈ 01-Nov-2013 ✈ KCLT - KSYR

Flight Track Log - Related Links

Times and Time Zones

All times are in EDT time to prevent confusion due to time zone crossing. See the AWE2690 flight status page for this flight to view local times or setup timezone preferences in your user account.

Time Position Orientation Groundspeed Altitude Reporting Facility
EDT Latitude Longitude Course Direction KTS MPH feet Rate Location/Type
01:23PM 35.1928 -80.9331 North 162 186 1,700  Level Atlanta Center
01:24PM 35.1553 -80.9344 182° South 178 205 3,200 1,980 Climbing Atlanta Center
01:25PM 35.1450 -80.8536 99° East 313 360 5,700 2,040 Climbing Atlanta Center
01:26PM 35.2003 -80.8133 31° Northeast 315 362 7,500 2,340 Climbing Atlanta Center
01:27PM 35.4483 -80.9574 13° North  Level FlightAware Approximate
01:27PM 35.2839 -80.8228 355° North 324 373 10,200  Level Atlanta Center
01:28PM 35.5770 -80.9196 13° North  Level FlightAware Approximate
01:28PM 35.3781 -80.8369 353° North 333 383 11,900  Level Atlanta Center
01:29PM 35.7058 -80.8826 North  Level FlightAware Approximate
01:29PM 35.4850 -80.8506 354° North 338 389 14,600  Level Atlanta Center
01:30PM 35.5911 -80.8439 North 365 420 15,000 180 Climbing Atlanta Center
01:31PM 35.7078 -80.8342 North 400 460 15,000  Level Atlanta Center
01:32PM 35.8242 -80.8244 North 413 475 15,000 660 Level Atlanta Center
01:33PM 35.9344 -80.8125 North 408 470 16,400 1,440 Climbing Atlanta Center
01:34PM 36.0533 -80.8053 North 408 470 17,900 1,740 Climbing Atlanta Center
01:35PM 36.1781 -80.7925 North 429 494 19,900 1,920 Climbing Atlanta Center
01:36PM 36.2986 -80.7825 North 435 501 21,800 1,800 Climbing Atlanta Center
01:37PM 36.4233 -80.7672 North 441 507 23,600 1,140 Climbing Atlanta Center
01:39PM 36.6436 -80.7539 North 436 502 25,000 480 Climbing Washington Center
01:40PM 36.7797 -80.7422 North 465 535 25,000  Level Washington Center
01:41PM 36.9114 -80.7328 North 472 543 25,000  Level Washington Center
01:42PM 37.0392 -80.7231 North 472 543 25,000  Level Washington Center
01:43PM 37.1617 -80.6897 12° North 478 550 25,000  Level Washington Center
01:44PM 37.2928 -80.6489 14° North 478 550 25,000  Level Washington Center
01:45PM 37.4219 -80.6050 15° North 478 550 25,000  Level Washington Center
01:46PM 37.5486 -80.5636 15° North 478 550 25,000  Level Washington Center
01:47PM 37.6947 -80.5128 15° North 478 550 25,000  Level Washington Center
01:48PM 37.8300 -80.4692 14° North 483 556 25,000  Level Washington Center
01:49PM 37.9633 -80.4225 15° North 489 563 25,000  Level Washington Center
01:50PM 38.0986 -80.3783 14° North 494 568 25,000  Level Washington Center
01:51PM 38.2342 -80.3236 18° North 499 574 25,000  Level Washington Center
01:52PM 38.3383 -80.2192 38° Northeast 510 587 25,000  Level Washington Center
01:53PM 38.4489 -80.1094 38° Northeast 510 587 25,000  Level Washington Center
01:54PM 38.5594 -80.0019 37° Northeast 504 580 25,000  Level Washington Center
01:55PM 38.6742 -79.8864 38° Northeast 504 580 25,000  Level Washington Center
01:56PM 38.7886 -79.7731 38° Northeast 510 587 25,000  Level Washington Center
01:57PM 38.9161 -79.6444 38° Northeast 522 601 25,000  Level Washington Center
01:58PM 39.0264 -79.5250 40° Northeast 522 601 25,000  Level Washington Center
02:00PM 39.2883 -79.2594 38° Northeast 537 618 25,000  Level Cleveland Center
02:01PM 39.3989 -79.1444 39° Northeast 529 609 25,000  Level Cleveland Center
02:02PM 39.5217 -79.0175 39° Northeast 559 643 25,000  Level Cleveland Center
02:03PM 39.6575 -78.8736 39° Northeast 563 648 25,000  Level Cleveland Center
02:04PM 39.7794 -78.7481 38° Northeast 559 643 25,000  Level Cleveland Center
02:05PM 39.8961 -78.6250 39° Northeast 560 644 25,000  Level Cleveland Center
02:06PM 40.0169 -78.4978 39° Northeast 562 647 25,000  Level Cleveland Center
02:08PM 40.1464 -78.3961 31° Northeast 551 634 25,000  Level Cleveland Center
02:09PM 40.3075 -78.2972 25° Northeast 539 620 25,000  Level Cleveland Center
02:10PM 40.4392 -78.2114 26° Northeast 536 617 25,000  Level Cleveland Center
02:11PM 40.5569 -78.0733 42° Northeast 538 619 25,000  Level New York Center
02:12PM 40.6600 -77.9500 42° Northeast 540 621 25,000  Level Cleveland Center
02:13PM 40.7903 -77.7967 42° Northeast 533 613 25,000  Level New York Center
02:14PM 40.9044 -77.6628 42° Northeast 533 613 25,000 -300 Level New York Center
02:15PM 41.0183 -77.5311 41° Northeast 533 613 24,500 -960 Descending New York Center
02:16PM 41.1258 -77.4014 42° Northeast 528 608 23,100 -780 Descending New York Center
02:17PM 41.2197 -77.2864 43° Northeast 517 595 23,000 -60 Descending New York Center
02:18PM 41.3289 -77.1561 42° Northeast 517 595 23,000  Level New York Center
02:20PM 41.5253 -76.9183 42° Northeast 532 612 23,000  Level Boston Center
02:21PM 41.7236 -76.7819 27° Northeast 528 608 23,000 -240 Level Cleveland Center
02:22PM 41.8172 -76.7350 20° North 522 601 22,600 -1,800 Descending New York Center
02:23PM 41.9558 -76.6722 19° North 517 595 20,000 -2,820 Descending New York Center
02:24PM 42.0839 -76.6108 20° North 511 588 17,100 -2,520 Descending New York Center
02:25PM 42.2011 -76.5542 20° North 472 543 15,000 -2,040 Descending New York Center
02:27PM 42.4233 -76.4472 20° North 398 458 11,000 -1,380 Descending Boston Center
02:28PM 42.5211 -76.4022 19° North 379 436 11,000  Level Boston Center
02:29PM 42.6197 -76.3547 20° North 378 435 11,000 -120 Level Boston Center
02:30PM 42.7161 -76.3039 21° North 375 432 10,800 -660 Descending Boston Center
02:31PM 42.8011 -76.2503 25° Northeast 327 376 9,700 -1,560 Descending Boston Center
02:31PM 42.8303 -76.2292 28° Northeast 299 344 8,800 -2,400 Descending Boston Center
02:32PM 42.8778 -76.2050 20° North 304 350 7,300 -2,460 Descending Boston Center
02:32PM 42.9131 -76.1828 25° Northeast 293 337 6,100 -2,460 Descending Boston Center
02:33PM 42.9536 -76.1658 17° North 293 337 4,800 -2,280 Descending Boston Center
02:33PM 42.9883 -76.1422 26° Northeast 291 335 3,800 -1,380 Descending Boston Center
02:34PM 43.0211 -76.1106 35° Northeast 288 331 3,400 -300 Descending Boston Center
02:34PM 43.0481 -76.0794 40° Northeast 257 296 3,500 -480 Climbing Boston Center
02:35PM 43.0567 -76.0356 75° East 265 305 2,900 -1,020 Descending Boston Center
02:35PM 43.0622 -75.9964 79° East 212 244 2,500 -720 Descending Boston Center
02:36PM 43.0867 -75.9800 26° Northeast 231 266 2,200 -600 Descending Boston Center
02:36PM 43.1097 -75.9939 336° Northwest 155 178 1,900 -720 Descending Boston Center
02:37PM 43.1108 -76.0167 274° West 183 211 1,500 -720 Descending Boston Center
02:37PM 43.1100 -76.0436 268° West 117 135 1,200 -720 Descending Boston Center
02:38PM 43.1097 -76.0642 269° West 143 165 800 -600 Descending Boston Center